Thornbury, Canada
Current Conditions -  °F | °C
As of 7:00 AM on Friday 28 Nov 2014 (Local Time) from CYBN Reporting Station
Few Clouds Few Clouds  
Wind Chill:   Ceiling: Unl
Heat Index: 16°   Visibility: 9mi
Dew Point: 12°   Wind: 8mph
Humidity: 86%   Direction: 290°WNW
Pressure: 30.21"   Gusts: NA
Location:  44.56°N, 80.45°W
Report Text: CYBN 281200Z AUTO 29007KT 260V320 9SM FEW024 M09/M11 A3021 RMKSLP245
Loading
Personal Weather Stations






























Interactive Weather Map New forecast layout! Learn more

10-Day Weather Forecast

Advertisements
Track Severe Weather on mobile